Time;durP1;ratioP1;P1;durP2;ratioP2;P2;SDS_P1;SDS_P2;PMS_P1;PMS_P2;Temp;Humidity;BMP_temperature;BMP_pressure;BME280_temperature;BME280_humidity;BME280_pressure;Samples;Min_cycle;Max_cycle;Signal;HPM_P1;HPM_P2
2022/05/31 00:01:25;;;;;;;;;28.50;26.50;;;;;19.54;69.30;99343.69;5049869;28;8836;-77
2022/05/31 00:03:54;;;;;;;;;30.75;29.50;;;;;19.54;69.32;99340.19;5049554;28;8876;-77
2022/05/31 00:06:23;;;;;;;;;37.25;33.00;;;;;19.52;69.40;99350.81;5066052;28;8940;-77
2022/05/31 00:08:55;;;;;;;;;32.75;27.75;;;;;19.55;69.19;99356.00;5064859;28;8858;-75
2022/05/31 00:11:23;;;;;;;;;36.00;31.25;;;;;19.59;69.34;99360.25;5065581;28;8852;-76
2022/05/31 00:13:52;;;;;;;;;29.25;27.50;;;;;19.63;69.09;99355.69;5049211;28;9581;-75
2022/05/31 00:16:21;;;;;;;;;27.80;26.20;;;;;19.63;69.10;99363.63;5074746;28;8843;-77
2022/05/31 00:18:50;;;;;;;;;32.00;31.00;;;;;19.63;68.58;99371.56;5087235;28;9090;-76
2022/05/31 00:21:19;;;;;;;;;28.50;28.50;;;;;19.56;69.10;99370.06;5070681;28;8870;-77
2022/05/31 00:23:47;;;;;;;;;27.20;26.40;;;;;19.56;69.27;99363.00;5086807;28;8831;-77
2022/05/31 00:26:17;;;;;;;;;27.25;27.25;;;;;19.54;69.40;99356.06;5087102;28;8869;-77
2022/05/31 00:28:46;;;;;;;;;33.25;30.00;;;;;19.52;69.39;99366.69;5088742;28;8866;-77
2022/05/31 00:31:15;;;;;;;;;29.20;27.80;;;;;19.52;69.40;99363.19;5087225;28;8832;-78
2022/05/31 00:33:44;;;;;;;;;31.75;29.50;;;;;19.51;69.08;99369.41;5088480;28;8852;-76
2022/05/31 00:36:12;;;;;;;;;25.25;25.00;;;;;19.48;68.97;99375.69;5088958;28;8882;-76
2022/05/31 00:38:41;;;;;;;;;27.00;26.50;;;;;19.44;68.85;99368.78;5087466;28;8847;-79
2022/05/31 00:41:26;;;;;;;;;29.20;28.40;;;;;19.42;68.96;99371.50;5069302;28;8832;-77
2022/05/31 00:43:59;;;;;;;;;31.25;29.00;;;;;19.39;68.70;99379.53;5035926;28;9616;-79
2022/05/31 00:46:36;;;;;;;;;30.25;29.25;;;;;19.36;68.96;99384.13;5087973;28;8863;-76
2022/05/31 00:49:08;;;;;;;;;34.00;29.00;;;;;19.33;69.44;99374.50;5072058;28;8889;-76
2022/05/31 00:51:40;;;;;;;;;31.75;30.25;;;;;19.29;69.36;99372.91;5005297;28;8839;-79
2022/05/31 00:54:14;;;;;;;;;33.50;31.00;;;;;19.25;69.33;99368.66;5032941;28;8854;-76
2022/05/31 00:56:45;;;;;;;;;33.25;31.50;;;;;19.08;69.96;99380.72;5086165;28;8912;-77
2022/05/31 00:59:20;;;;;;;;;32.50;31.00;;;;;18.94;70.48;99379.53;5091106;28;9705;-78
2022/05/31 01:01:52;;;;;;;;;31.75;29.00;;;;;18.81;70.94;99389.69;5092363;28;8953;-76
2022/05/31 01:04:27;;;;;;;;;33.75;30.25;;;;;18.72;71.47;99408.50;5090654;28;8850;-76
2022/05/31 01:06:56;;;;;;;;;35.00;30.00;;;;;18.66;71.87;99409.59;5090617;28;8974;-74
2022/05/31 01:09:26;;;;;;;;;28.25;27.25;;;;;18.65;71.90;99415.78;5092029;28;8851;-75
2022/05/31 01:12:14;;;;;;;;;36.50;33.00;;;;;18.50;72.38;99410.09;5061748;28;8860;-76
2022/05/31 01:15:03;;;;;;;;;31.75;31.00;;;;;18.56;72.24;99406.38;5074048;28;8844;-76
2022/05/31 01:17:50;;;;;;;;;35.25;32.50;;;;;18.62;72.12;99414.13;5075474;28;8881;-77
2022/05/31 01:20:41;;;;;;;;;36.00;32.25;;;;;18.55;72.31;99409.97;5023828;28;8849;-78
2022/05/31 01:23:17;;;;;;;;;33.50;31.00;;;;;18.54;72.18;99413.50;4992456;28;9035;-78
2022/05/31 01:25:57;;;;;;;;;34.25;30.00;;;;;18.59;71.94;99414.22;4976417;28;8910;-77
2022/05/31 01:28:37;;;;;;;;;32.75;28.50;;;;;18.57;71.90;99425.75;5009164;28;8857;-79
2022/05/31 01:31:11;;;;;;;;;31.25;30.25;;;;;18.42;72.10;99422.72;4971028;28;8878;-76
2022/05/31 01:33:45;;;;;;;;;36.00;33.00;;;;;18.35;72.52;99434.41;5012146;28;8917;-76
2022/05/31 01:36:20;;;;;;;;;37.00;33.00;;;;;18.36;72.37;99432.66;5008718;28;9053;-77
2022/05/31 01:38:55;;;;;;;;;35.50;32.00;;;;;18.24;73.00;99436.56;4992357;28;9776;-76
2022/05/31 01:41:27;;;;;;;;;29.25;26.25;;;;;18.09;73.74;99443.19;4992066;28;8873;-76
2022/05/31 01:44:00;;;;;;;;;31.75;30.25;;;;;18.25;73.20;99448.84;4959767;28;8871;-75
2022/05/31 01:46:33;;;;;;;;;33.75;31.00;;;;;18.36;72.72;99440.56;4992743;28;9032;-75
2022/05/31 01:49:06;;;;;;;;;35.50;32.00;;;;;18.43;72.27;99439.44;5011742;28;8977;-77
2022/05/31 01:51:40;;;;;;;;;40.75;33.00;;;;;18.51;72.08;99437.41;5011661;28;8880;-75
2022/05/31 01:54:11;;;;;;;;;29.00;28.75;;;;;18.62;71.78;99429.09;5011691;28;8939;-78
2022/05/31 01:56:43;;;;;;;;;39.50;34.50;;;;;18.72;71.50;99419.06;5028462;28;8940;-76
2022/05/31 01:59:12;;;;;;;;;39.00;33.50;;;;;18.73;71.24;99420.78;5089320;28;8859;-75
2022/05/31 02:01:42;;;;;;;;;37.75;32.75;;;;;18.69;71.13;99428.84;5089436;28;8852;-76
2022/05/31 02:04:15;;;;;;;;;41.25;35.00;;;;;18.66;71.28;99430.72;5088908;28;8883;-75
2022/05/31 02:06:45;;;;;;;;;39.75;33.50;;;;;18.70;71.20;99427.06;5066775;28;8847;-76
2022/05/31 02:09:16;;;;;;;;;38.00;32.75;;;;;18.78;70.93;99427.63;5067885;28;9682;-78
2022/05/31 02:11:47;;;;;;;;;39.75;34.00;;;;;18.70;71.27;99438.47;5067453;28;8832;-75
2022/05/31 02:14:25;;;;;;;;;31.25;29.75;;;;;18.74;71.30;99433.09;5052626;28;8844;-76
2022/05/31 02:16:54;;;;;;;;;34.00;32.00;;;;;18.81;70.84;99426.69;5051236;28;8886;-77
2022/05/31 02:19:49;;;;;;;;;35.50;33.00;;;;;18.86;70.63;99424.72;5041003;28;8855;-76
2022/05/31 02:22:27;;;;;;;;;36.25;33.50;;;;;18.88;70.35;99434.34;5067381;28;8856;-76
2022/05/31 02:24:56;;;;;;;;;39.00;33.50;;;;;18.93;70.20;99438.59;5034643;28;8994;-76
2022/05/31 02:27:25;;;;;;;;;36.00;31.75;;;;;18.93;69.63;99444.75;5067364;28;8840;-75
2022/05/31 02:29:54;;;;;;;;;38.25;34.25;;;;;18.90;69.27;99447.47;5034623;28;8984;-76
2022/05/31 02:32:22;;;;;;;;;37.25;32.25;;;;;18.97;69.28;99450.78;5030425;28;8912;-77
2022/05/31 02:34:52;;;;;;;;;34.25;31.50;;;;;18.80;69.32;99454.88;5047459;28;8830;-76
2022/05/31 02:37:23;;;;;;;;;36.25;33.00;;;;;18.27;71.73;99457.56;5052322;28;8981;-75
2022/05/31 02:39:53;;;;;;;;;32.25;28.50;;;;;18.27;71.93;99463.72;5030732;28;8842;-78
2022/05/31 02:42:23;;;;;;;;;36.25;32.50;;;;;18.27;71.92;99469.00;5031115;28;8853;-79
2022/05/31 02:44:52;;;;;;;;;36.00;31.00;;;;;18.32;71.76;99460.94;5047368;28;8950;-75
2022/05/31 02:47:21;;;;;;;;;41.25;34.25;;;;;18.37;71.05;99458.13;5050867;28;8859;-76
2022/05/31 02:49:51;;;;;;;;;34.25;32.25;;;;;18.45;70.88;99461.34;5018240;28;8929;-75
2022/05/31 02:52:19;;;;;;;;;37.50;33.25;;;;;18.56;70.46;99458.34;5051353;28;8902;-76
2022/05/31 02:54:48;;;;;;;;;31.75;27.00;;;;;18.66;70.20;99462.41;5067391;28;8848;-77
2022/05/31 02:57:21;;;;;;;;;36.25;33.25;;;;;18.72;69.78;99466.63;5067228;28;9739;-76
2022/05/31 02:59:58;;;;;;;;;41.50;35.50;;;;;18.81;69.58;99467.19;5050726;28;8860;-77
2022/05/31 03:02:45;;;;;;;;;39.75;34.00;;;;;18.88;69.05;99471.34;5028860;28;8894;-76
2022/05/31 03:05:34;;;;;;;;;41.00;35.75;;;;;18.96;68.86;99476.34;5089070;28;8835;-77
2022/05/31 03:08:23;;;;;;;;;34.75;32.75;;;;;19.04;68.56;99474.28;5088621;28;8875;-76
2022/05/31 03:11:17;;;;;;;;;38.25;33.00;;;;;18.89;67.92;99472.19;5088117;28;8843;-76
2022/05/31 03:13:51;;;;;;;;;40.00;34.50;;;;;18.79;68.21;99473.41;5053291;28;8967;-77
2022/05/31 03:16:21;;;;;;;;;33.50;31.50;;;;;18.75;68.77;99474.41;5088099;28;8886;-79
2022/05/31 03:18:56;;;;;;;;;46.75;40.00;;;;;18.81;68.63;99476.88;5087824;28;8858;-78
2022/05/31 03:21:30;;;;;;;;;47.75;40.00;;;;;18.86;68.44;99467.00;5089141;28;8858;-78
2022/05/31 03:24:08;;;;;;;;;50.75;41.25;;;;;18.97;67.93;99461.34;5087755;28;8867;-75
2022/05/31 03:26:40;;;;;;;;;42.00;34.25;;;;;19.01;67.71;99458.53;5087798;28;8840;-77
2022/05/31 03:29:12;;;;;;;;;39.00;34.50;;;;;19.04;67.52;99453.13;5107739;28;8863;-77
2022/05/31 03:31:41;;;;;;;;;36.25;33.50;;;;;19.08;67.33;99456.53;5083796;28;8832;-78
2022/05/31 03:34:10;;;;;;;;;32.75;30.75;;;;;19.14;67.34;99458.09;5054810;28;8963;-80
2022/05/31 03:36:39;;;;;;;;;34.75;31.25;;;;;19.07;67.07;99455.69;5072193;28;8966;-76
2022/05/31 03:39:13;;;;;;;;;36.50;33.25;;;;;19.15;66.68;99467.72;5088911;28;8852;-76
2022/05/31 03:41:41;;;;;;;;;35.00;32.00;;;;;19.13;66.51;99467.81;5088183;28;8852;-76
2022/05/31 03:44:11;;;;;;;;;35.75;30.25;;;;;19.02;66.87;99477.91;5088937;28;8847;-75
2022/05/31 03:47:02;;;;;;;;;46.00;38.50;;;;;19.03;66.51;99467.25;5044684;28;8862;-77
2022/05/31 03:49:49;;;;;;;;;50.50;42.25;;;;;19.02;67.22;99467.34;5045761;28;8912;-76
2022/05/31 03:52:18;;;;;;;;;49.67;39.00;;;;;19.10;67.00;99470.56;5011802;28;8913;-76
2022/05/31 03:54:48;;;;;;;;;38.50;33.50;;;;;19.12;66.48;99466.06;5045848;28;8876;-75
2022/05/31 03:57:37;;;;;;;;;41.75;33.75;;;;;19.13;66.25;99467.81;5044011;28;9096;-75
2022/05/31 04:00:25;;;;;;;;;41.25;35.00;;;;;19.15;66.27;99470.38;5027868;28;8896;-78
2022/05/31 04:03:10;;;;;;;;;40.00;34.25;;;;;19.16;66.21;99480.03;4984060;28;9968;-78
2022/05/31 04:05:39;;;;;;;;;50.00;41.25;;;;;19.19;66.40;99491.38;5011031;28;9628;-76
2022/05/31 04:08:11;;;;;;;;;41.25;35.75;;;;;19.04;67.02;99490.13;5010830;28;8908;-76
2022/05/31 04:10:42;;;;;;;;;44.50;37.00;;;;;19.10;66.84;99489.06;5027348;28;8857;-76
2022/05/31 04:13:11;;;;;;;;;47.25;37.50;;;;;19.17;66.98;99482.63;5010747;28;8927;-78
2022/05/31 04:16:10;;;;;;;;;52.50;42.50;;;;;19.22;66.66;99478.00;5003651;28;8867;-76
2022/05/31 04:18:42;;;;;;;;;47.75;39.75;;;;;19.22;66.38;99477.16;4955138;28;8973;-78
2022/05/31 04:21:16;;;;;;;;;57.25;45.75;;;;;19.32;66.95;99480.31;4988270;28;9684;-77
2022/05/31 04:23:59;;;;;;;;;48.75;39.00;;;;;19.36;66.20;99476.66;4993201;28;8958;-77
2022/05/31 04:26:47;;;;;;;;;42.75;36.75;;;;;19.45;65.94;99479.81;5022714;28;8860;-77
2022/05/31 04:29:36;;;;;;;;;39.75;35.25;;;;;19.49;65.96;99480.56;5023229;28;8922;-78
2022/05/31 04:32:25;;;;;;;;;41.75;35.75;;;;;19.48;65.48;99474.41;5040646;28;8866;-79
2022/05/31 04:35:17;;;;;;;;;40.75;35.50;;;;;19.43;65.37;99473.72;4918267;28;8885;-78
2022/05/31 04:37:46;;;;;;;;;45.75;37.25;;;;;19.43;65.53;99479.00;4899172;28;9004;-77
2022/05/31 04:40:27;;;;;;;;;45.00;36.00;;;;;19.48;65.40;99476.19;4927011;28;8896;-77
2022/05/31 04:43:14;;;;;;;;;46.50;37.25;;;;;19.57;65.27;99478.47;4944418;28;8876;-77
2022/05/31 04:46:23;;;;;;;;;36.50;33.00;;;;;19.60;65.03;99482.78;4912117;29;8992;-77
2022/05/31 04:49:09;;;;;;;;;45.00;37.00;;;;;19.63;64.69;99482.66;4911870;29;8887;-78
2022/05/31 04:51:39;;;;;;;;;37.50;34.00;;;;;19.66;64.67;99474.63;4912023;29;8995;-78
2022/05/31 04:54:10;;;;;;;;;43.50;35.50;;;;;19.70;64.99;99475.34;4959452;28;8881;-79
2022/05/31 04:56:48;;;;;;;;;46.25;39.00;;;;;19.73;64.75;99483.19;4950695;28;9710;-78
2022/05/31 04:59:18;;;;;;;;;43.00;36.50;;;;;19.62;65.16;99496.81;4931759;29;8853;-79
2022/05/31 05:01:47;;;;;;;;;43.75;36.00;;;;;19.60;65.39;99493.34;4960873;28;8989;-77
2022/05/31 05:04:35;;;;;;;;;43.00;35.50;;;;;19.58;65.32;99498.69;4949592;28;8874;-76
2022/05/31 05:07:04;;;;;;;;;46.50;36.00;;;;;19.38;65.53;99495.97;4899031;28;9797;-76
2022/05/31 05:09:35;;;;;;;;;41.25;33.75;;;;;19.40;65.94;99508.22;4925784;28;8870;-80
2022/05/31 05:12:22;;;;;;;;;41.25;36.25;;;;;19.32;66.45;99505.00;4982295;28;8846;-76
2022/05/31 05:14:58;;;;;;;;;42.75;36.50;;;;;19.25;66.82;99514.06;5025965;28;8900;-78
2022/05/31 05:17:28;;;;;;;;;41.25;34.50;;;;;19.27;66.31;99505.16;5042915;28;8862;-76
2022/05/31 05:19:57;;;;;;;;;48.25;38.50;;;;;19.34;66.46;99510.22;5015323;28;8955;-79
2022/05/31 05:22:28;;;;;;;;;43.50;37.00;;;;;19.42;66.09;99503.72;5066821;28;8883;-77
2022/05/31 05:25:00;;;;;;;;;42.75;36.75;;;;;19.46;66.00;99502.69;5083844;28;8856;-77
2022/05/31 05:27:39;;;;;;;;;45.25;38.00;;;;;19.54;65.63;99510.31;5084995;28;9691;-79
2022/05/31 05:33:21;;;;;;;;;46.50;40.00;;;;;19.74;64.58;99520.19;4986414;28;8874;-80
2022/05/31 05:36:11;;;;;;;;;43.25;35.75;;;;;19.78;64.73;99511.22;4965997;28;8875;-80
2022/05/31 05:38:39;;;;;;;;;45.75;37.50;;;;;19.86;64.01;99516.19;4934148;28;8870;-78
2022/05/31 05:41:30;;;;;;;;;44.75;37.00;;;;;19.97;64.09;99514.00;4967137;28;9765;-78
2022/05/31 05:44:17;;;;;;;;;44.50;37.00;;;;;20.08;63.44;99523.31;4951830;28;8831;-78
2022/05/31 05:46:47;;;;;;;;;43.50;36.25;;;;;20.13;62.83;99516.91;4952053;28;9613;-80
2022/05/31 05:49:15;;;;;;;;;44.00;36.75;;;;;20.24;62.96;99514.69;4952059;28;8977;-77
2022/05/31 05:51:47;;;;;;;;;40.75;35.00;;;;;20.38;62.69;99510.59;4936770;28;8867;-79
2022/05/31 05:54:54;;;;;;;;;44.75;38.75;;;;;20.50;61.90;99510.09;4910737;29;8866;-78
2022/05/31 05:57:54;;;;;;;;;46.75;38.00;;;;;20.55;61.42;99505.47;4891364;29;8889;-78
2022/05/31 06:00:45;;;;;;;;;45.50;38.00;;;;;20.70;61.11;99513.69;4899103;29;8888;-76
2022/05/31 06:03:21;;;;;;;;;45.25;35.75;;;;;20.75;61.27;99525.81;4895351;29;8863;-77
2022/05/31 06:06:00;;;;;;;;;47.00;38.75;;;;;20.87;60.93;99519.16;4894187;29;8874;-78
2022/05/31 06:08:37;;;;;;;;;51.50;41.50;;;;;20.94;60.43;99517.09;4944319;28;9014;-77
2022/05/31 06:11:09;;;;;;;;;44.00;36.50;;;;;20.86;60.10;99516.56;4931725;28;8876;-77
2022/05/31 06:13:45;;;;;;;;;48.25;39.50;;;;;20.91;60.38;99518.09;4943337;28;8859;-78
2022/05/31 06:16:14;;;;;;;;;45.50;38.25;;;;;20.87;60.13;99512.97;4977992;28;8876;-78
2022/05/31 06:18:47;;;;;;;;;47.25;37.75;;;;;20.77;60.23;99510.72;4883941;28;8863;-80
2022/05/31 06:21:21;;;;;;;;;44.25;35.75;;;;;20.90;60.28;99510.19;4930467;28;8987;-78
2022/05/31 06:23:55;;;;;;;;;48.50;39.25;;;;;21.03;60.21;99511.38;4912330;28;8907;-76
2022/05/31 06:26:32;;;;;;;;;46.75;39.50;;;;;21.12;59.95;99510.97;4925079;28;8885;-77
2022/05/31 06:29:05;;;;;;;;;43.50;36.75;;;;;21.18;59.14;99508.03;4928673;28;9004;-77
2022/05/31 06:31:34;;;;;;;;;42.50;36.00;;;;;21.22;58.24;99517.56;4939505;28;8873;-79
2022/05/31 06:34:11;;;;;;;;;48.25;38.75;;;;;21.26;58.00;99506.84;4979837;28;8906;-79
2022/05/31 06:37:14;;;;;;;;;42.75;36.50;;;;;21.38;57.52;99509.81;4969582;28;8870;-80
2022/05/31 06:39:46;;;;;;;;;38.00;32.50;;;;;21.45;57.50;99496.28;4955947;28;8878;-79
2022/05/31 06:42:35;;;;;;;;;35.00;31.75;;;;;21.45;56.35;99504.25;4967621;28;8975;-79
2022/05/31 06:45:23;;;;;;;;;36.00;32.75;;;;;21.51;55.89;99504.84;4972454;28;8841;-79
2022/05/31 06:48:11;;;;;;;;;37.00;32.50;;;;;21.56;55.37;99512.56;4992070;28;9593;-80
2022/05/31 06:51:03;;;;;;;;;38.50;34.25;;;;;21.54;55.67;99515.28;4969251;28;8892;-80
2022/05/31 06:56:49;;;;;;;;;43.00;34.25;;;;;21.63;56.95;99500.75;4986296;28;9064;-81
2022/05/31 06:59:26;;;;;;;;;42.50;34.75;;;;;21.76;57.00;99507.19;5020921;28;8935;-81
2022/05/31 07:02:03;;;;;;;;;41.50;36.50;;;;;21.89;56.76;99510.13;5010530;28;8949;-80
2022/05/31 07:04:32;;;;;;;;;44.25;37.25;;;;;21.66;57.35;99513.00;4967887;28;8878;-79
2022/05/31 07:07:01;;;;;;;;;47.25;38.75;;;;;21.76;57.56;99522.28;4967433;28;8898;-80
2022/05/31 07:09:54;;;;;;;;;47.00;39.25;;;;;21.64;57.88;99536.94;4954052;28;8851;-78
2022/05/31 07:12:44;;;;;;;;;47.75;38.75;;;;;21.69;58.78;99545.56;4996672;28;8840;-79
2022/05/31 07:15:36;;;;;;;;;44.75;37.00;;;;;21.73;57.53;99556.91;4948295;28;9597;-78
2022/05/31 07:18:43;;;;;;;;;43.25;35.50;;;;;21.87;58.05;99549.19;4928777;29;8871;-79
2022/05/31 07:21:13;;;;;;;;;49.00;39.00;;;;;21.57;59.26;99551.47;4898164;29;8845;-81
2022/05/31 07:23:42;;;;;;;;;44.50;37.75;;;;;21.16;61.03;99540.88;4913825;29;8992;-79
2022/05/31 07:26:13;;;;;;;;;43.75;37.25;;;;;21.43;60.68;99530.81;4928975;29;8858;-78
2022/05/31 07:29:03;;;;;;;;;45.00;37.25;;;;;21.67;59.96;99531.50;4929472;29;9724;-81
2022/05/31 07:31:35;;;;;;;;;40.75;35.50;;;;;21.88;59.62;99531.44;4882724;29;9045;-78
2022/05/31 07:34:25;;;;;;;;;39.50;34.75;;;;;22.03;59.16;99521.88;4914498;29;8924;-78
2022/05/31 07:36:55;;;;;;;;;38.75;34.25;;;;;22.18;58.42;99510.50;4930645;28;8877;-78
2022/05/31 07:39:25;;;;;;;;;44.50;36.50;;;;;22.22;57.67;99509.41;4949885;28;8908;-78
2022/05/31 07:41:56;;;;;;;;;39.00;34.25;;;;;22.29;57.70;99510.88;4968445;28;8972;-80
2022/05/31 07:44:28;;;;;;;;;42.50;37.00;;;;;22.33;57.66;99515.09;4944976;28;9072;-80
2022/05/31 07:46:56;;;;;;;;;41.50;34.75;;;;;22.24;57.52;99525.28;4950560;28;9035;-81
2022/05/31 07:49:25;;;;;;;;;41.00;33.75;;;;;22.15;57.43;99527.44;4934259;28;8870;-81
2022/05/31 07:52:20;;;;;;;;;39.00;35.00;;;;;21.63;59.34;99543.22;4957467;28;8877;-80
2022/05/31 07:54:55;;;;;;;;;31.75;31.25;;;;;21.71;59.28;99540.19;5045687;28;8881;-81
2022/05/31 08:01:07;;;;;;;;;34.25;32.00;;;;;21.16;61.76;99562.94;5046367;28;8854;-81
2022/05/31 08:03:38;;;;;;;;;33.75;30.50;;;;;21.24;60.78;99565.25;5029544;28;8854;-81
2022/05/31 08:06:09;;;;;;;;;35.00;32.75;;;;;21.51;60.28;99572.94;5012270;28;8939;-80
2022/05/31 08:08:38;;;;;;;;;32.25;29.50;;;;;21.71;59.67;99569.41;4990053;28;8855;-81
2022/05/31 08:11:09;;;;;;;;;38.75;33.75;;;;;21.69;59.07;99585.38;4989733;28;9013;-81
2022/05/31 08:13:39;;;;;;;;;43.00;37.00;;;;;21.68;59.60;99578.38;4986044;28;8959;-80
2022/05/31 08:16:11;;;;;;;;;38.25;34.25;;;;;21.58;59.74;99582.34;4970083;28;8869;-80
2022/05/31 08:18:42;;;;;;;;;41.25;35.75;;;;;21.73;59.25;99576.34;4986691;28;8899;-81
2022/05/31 08:21:14;;;;;;;;;35.75;32.50;;;;;21.90;59.30;99578.22;4951205;28;9653;-80
2022/05/31 08:23:42;;;;;;;;;41.00;34.50;;;;;21.91;59.03;99577.28;4951668;28;8946;-79
2022/05/31 08:26:11;;;;;;;;;38.50;32.75;;;;;22.01;58.82;99583.03;4967111;28;8844;-80
2022/05/31 08:28:40;;;;;;;;;41.75;35.50;;;;;22.09;58.30;99586.19;4967289;28;8878;-81
2022/05/31 08:31:13;;;;;;;;;40.25;35.75;;;;;21.94;59.30;99586.91;4919111;28;8886;-82
2022/05/31 08:33:43;;;;;;;;;39.50;35.00;;;;;21.87;59.73;99583.69;4967638;28;9668;-81
2022/05/31 08:36:11;;;;;;;;;43.75;34.75;;;;;21.96;60.27;99591.19;4953515;28;8889;-80
2022/05/31 08:38:40;;;;;;;;;42.75;34.00;;;;;21.69;60.04;99601.31;4921650;28;8854;-79
2022/05/31 08:41:19;;;;;;;;;29.75;28.25;;;;;21.82;60.69;99603.41;4992199;28;8887;-79
2022/05/31 08:43:59;;;;;;;;;41.25;35.00;;;;;21.93;60.49;99595.81;4995107;28;8867;-79
2022/05/31 08:46:49;;;;;;;;;41.00;34.50;;;;;22.04;59.98;99595.28;5065041;28;8860;-78
2022/05/31 08:49:24;;;;;;;;;35.25;33.00;;;;;22.14;60.46;99585.97;5031717;28;8974;-80
2022/05/31 08:52:04;;;;;;;;;42.50;35.00;;;;;22.14;59.61;99591.28;5057315;28;8913;-79
2022/05/31 08:57:31;;;;;;;;;40.75;34.50;;;;;22.26;59.86;99585.41;5085983;28;8847;-81
2022/05/31 09:00:04;;;;;;;;;40.50;33.75;;;;;22.35;59.14;99577.00;5068230;28;8846;-81
2022/05/31 09:02:47;;;;;;;;;48.50;41.00;;;;;22.06;59.73;99574.84;5069035;28;9572;-81
2022/05/31 09:05:28;;;;;;;;;38.75;33.75;;;;;21.99;60.35;99579.59;5075507;28;8842;-81
2022/05/31 09:08:01;;;;;;;;;40.00;34.75;;;;;22.00;60.63;99570.69;5070539;28;8952;-79
2022/05/31 09:10:37;;;;;;;;;44.75;39.50;;;;;21.67;61.41;99557.19;5080837;28;8859;-80
2022/05/31 09:13:15;;;;;;;;;35.75;33.00;;;;;21.85;61.30;99547.50;5032134;28;8842;-81
2022/05/31 09:15:48;;;;;;;;;45.25;37.25;;;;;21.91;61.26;99545.44;5038303;28;8967;-80
2022/05/31 09:18:24;;;;;;;;;48.75;38.50;;;;;21.98;61.80;99538.03;5069871;28;8834;-82
2022/05/31 09:20:55;;;;;;;;;45.75;39.00;;;;;21.94;63.19;99549.72;5055551;28;8849;-80
2022/05/31 09:23:28;;;;;;;;;45.25;39.00;;;;;21.97;61.92;99542.47;5072339;28;8882;-80
2022/05/31 09:26:13;;;;;;;;;40.75;35.25;;;;;21.97;62.83;99546.94;5088529;28;8998;-81
2022/05/31 09:28:49;;;;;;;;;49.00;40.00;;;;;21.93;64.35;99545.38;5071027;28;8895;-80
2022/05/31 09:31:35;;;;;;;;;41.25;35.00;;;;;21.58;64.33;99534.59;5077321;28;8959;-80
2022/05/31 09:34:18;;;;;;;;;43.25;36.50;;;;;21.48;66.18;99535.94;5067440;28;8852;-80
2022/05/31 09:36:57;;;;;;;;;39.50;33.75;;;;;21.60;65.98;99519.44;5087954;28;8999;-81
2022/05/31 09:39:33;;;;;;;;;41.50;35.25;;;;;21.59;65.70;99504.47;5086705;28;8831;-81
2022/05/31 09:42:08;;;;;;;;;38.25;33.50;;;;;21.55;66.00;99484.28;5084080;28;8864;-82
2022/05/31 09:44:39;;;;;;;;;33.50;30.50;;;;;21.53;65.10;99486.16;5102217;28;8834;-82
2022/05/31 09:47:16;;;;;;;;;29.00;27.60;;;;;21.48;64.74;99485.53;5089815;28;8920;-80
2022/05/31 09:49:48;;;;;;;;;30.60;28.20;;;;;21.39;65.32;99474.38;5090484;28;8824;-79
2022/05/31 09:52:23;;;;;;;;;30.20;29.80;;;;;21.42;65.67;99468.09;5089430;28;9597;-79
2022/05/31 09:58:36;;;;;;;;;32.00;28.60;;;;;21.23;64.15;99457.47;5011786;28;8872;-80
2022/05/31 10:01:25;;;;;;;;;30.25;29.75;;;;;21.28;64.14;99458.09;5006542;28;8860;-80
2022/05/31 10:04:21;;;;;;;;;28.60;28.40;;;;;21.38;63.78;99469.16;5008091;28;8984;-80
2022/05/31 10:07:01;;;;;;;;;32.00;30.00;;;;;21.36;63.28;99486.91;5008852;28;8866;-80
2022/05/31 10:09:33;;;;;;;;;40.75;33.00;;;;;21.27;64.37;99495.31;5028153;28;8966;-82
2022/05/31 10:12:27;;;;;;;;;32.40;30.60;;;;;21.22;63.39;99498.16;4964066;28;8896;-80
2022/05/31 10:14:56;;;;;;;;;42.25;34.75;;;;;20.85;64.51;99507.75;4974222;28;8897;-79
2022/05/31 10:17:37;;;;;;;;;45.25;38.00;;;;;19.56;73.04;99526.16;4961139;28;8854;-80
2022/05/31 10:20:21;;;;;;;;;33.00;30.75;;;;;18.69;75.59;99526.56;4975115;28;8880;-81
2022/05/31 10:22:55;;;;;;;;;39.75;35.25;;;;;18.67;80.45;99524.88;4956385;28;8874;-80
2022/05/31 10:25:45;;;;;;;;;46.00;38.00;;;;;18.48;83.88;99514.06;4971315;28;8865;-80
2022/05/31 10:28:29;;;;;;;;;45.25;38.75;;;;;18.55;85.13;99505.03;4949856;28;8859;-81
2022/05/31 10:31:07;;;;;;;;;44.75;36.25;;;;;19.00;82.50;99504.38;4935878;28;8902;-79
2022/05/31 10:33:39;;;;;;;;;38.50;32.25;;;;;19.47;79.37;99487.69;4965826;28;8887;-81
2022/05/31 10:36:16;;;;;;;;;34.20;31.00;;;;;19.86;74.95;99489.72;5020051;28;9656;-77
2022/05/31 10:38:48;;;;;;;;;35.60;31.60;;;;;20.27;75.18;99494.28;5024414;28;8907;-79
2022/05/31 10:41:23;;;;;;;;;36.25;32.25;;;;;20.63;75.20;99500.72;4994568;28;8855;-81
2022/05/31 10:44:17;;;;;;;;;41.00;34.00;;;;;21.02;71.47;99489.31;5044259;28;8824;-79
2022/05/31 10:46:52;;;;;;;;;35.00;30.25;;;;;21.38;68.93;99475.31;5054209;28;8865;-80
2022/05/31 10:49:23;;;;;;;;;35.75;32.75;;;;;21.50;67.84;99475.72;5069747;28;8882;-80
2022/05/31 10:52:10;;;;;;;;;41.00;36.00;;;;;21.84;67.94;99476.78;5088676;28;8843;-78
2022/05/31 10:55:06;;;;;;;;;34.75;32.75;;;;;22.04;66.23;99479.31;5089640;28;8866;-80
2022/05/31 10:57:50;;;;;;;;;35.50;32.50;;;;;22.33;65.64;99485.88;5088687;28;8942;-79
2022/05/31 11:00:22;;;;;;;;;31.80;30.20;;;;;22.59;64.39;99475.72;5069070;28;8854;-78
2022/05/31 11:03:11;;;;;;;;;36.20;30.20;;;;;22.91;64.72;99476.72;5062286;28;8870;-80
2022/05/31 11:05:50;;;;;;;;;33.40;31.60;;;;;23.09;63.42;99471.41;5086968;28;8836;-76
2022/05/31 11:11:30;;;;;;;;;29.80;26.00;;;;;23.31;61.66;99487.91;5088306;28;8840;-78
2022/05/31 11:14:12;;;;;;;;;32.75;31.75;;;;;23.19;63.14;99479.72;5085867;28;8852;-77
2022/05/31 11:16:51;;;;;;;;;33.00;29.20;;;;;23.53;62.53;99479.63;5104811;28;8844;-79
2022/05/31 11:19:33;;;;;;;;;26.00;24.60;;;;;24.04;60.04;99473.28;5081020;28;8966;-79
2022/05/31 11:22:26;;;;;;;;;31.50;31.25;;;;;24.43;58.84;99466.59;5050554;28;8951;-78
2022/05/31 11:25:14;;;;;;;;;32.00;29.60;;;;;24.39;58.56;99465.06;5049745;28;8916;-79
2022/05/31 11:27:55;;;;;;;;;28.80;27.40;;;;;24.55;57.85;99465.88;5079386;28;9600;-78
2022/05/31 11:30:31;;;;;;;;;27.80;27.60;;;;;24.85;57.03;99457.84;5028650;28;8893;-79
2022/05/31 11:33:20;;;;;;;;;31.50;29.75;;;;;25.22;56.21;99468.06;5047908;28;8842;-77
2022/05/31 11:36:01;;;;;;;;;28.00;26.60;;;;;25.52;54.54;99461.75;5044128;28;8862;-74
2022/05/31 11:38:38;;;;;;;;;25.20;24.60;;;;;25.99;54.80;99465.88;5065742;28;8864;-75
2022/05/31 11:41:20;;;;;;;;;23.20;22.00;;;;;26.28;53.10;99463.94;5065808;28;8920;-75
2022/05/31 11:44:21;;;;;;;;;21.00;21.00;;;;;26.63;50.59;99458.03;5065137;28;8998;-75
2022/05/31 11:46:54;;;;;;;;;25.20;22.20;;;;;26.92;50.70;99460.50;5065929;28;8968;-76
2022/05/31 11:49:35;;;;;;;;;24.40;23.40;;;;;27.07;50.64;99462.16;5045826;28;8928;-77
2022/05/31 11:52:18;;;;;;;;;14.20;12.40;;;;;27.21;49.70;99450.44;5046310;28;8859;-76
2022/05/31 11:55:29;;;;;;;;;25.40;19.60;;;;;27.31;48.70;99448.84;5046192;28;8836;-75
2022/05/31 11:58:10;;;;;;;;;19.40;19.40;;;;;27.46;47.91;99441.53;5059460;28;8885;-76
2022/05/31 12:00:48;;;;;;;;;16.00;15.40;;;;;27.84;47.63;99440.53;5025896;28;8861;-74
2022/05/31 12:03:24;;;;;;;;;20.20;17.60;;;;;27.93;46.18;99442.56;5064914;28;8908;-73
2022/05/31 12:05:58;;;;;;;;;19.00;16.20;;;;;28.20;46.02;99438.78;5064386;28;8845;-74
2022/05/31 12:08:34;;;;;;;;;18.80;18.00;;;;;28.46;45.04;99433.28;5065953;28;8849;-71
2022/05/31 12:11:10;;;;;;;;;12.40;12.40;;;;;28.58;44.27;99424.31;5049167;28;8861;-71
2022/05/31 12:13:44;;;;;;;;;15.60;15.40;;;;;28.97;43.97;99414.97;5048544;28;8885;-73
2022/05/31 12:16:16;;;;;;;;;15.40;15.40;;;;;29.61;43.40;99410.78;5065095;28;8861;-71
2022/05/31 12:18:55;;;;;;;;;15.80;15.80;;;;;30.22;42.31;99410.22;5065108;28;8957;-72
2022/05/31 12:21:30;;;;;;;;;15.80;13.80;;;;;30.55;40.36;99411.06;5082067;28;8856;-72
2022/05/31 12:24:05;;;;;;;;;18.80;18.00;;;;;30.75;39.89;99405.78;5088530;28;8890;-74
2022/05/31 12:26:41;;;;;;;;;17.00;16.00;;;;;30.99;39.66;99398.28;5085571;28;8864;-70
2022/05/31 12:29:15;;;;;;;;;13.20;12.80;;;;;30.87;38.86;99402.88;5087745;28;8875;-70